createdAt,value
2022-11-19T00:01:21.354Z,67.98
2022-11-19T00:04:25.263Z,68.08
2022-11-19T00:07:30.151Z,68.24
2022-11-19T00:10:35.094Z,68.62
2022-11-19T00:13:56.023Z,68.56
2022-11-19T00:16:59.801Z,68.18
2022-11-19T00:20:03.221Z,68.14
2022-11-19T00:23:08.285Z,67.79
2022-11-19T00:26:13.728Z,68.18
2022-11-19T00:29:18.319Z,68.26
2022-11-19T00:32:21.844Z,67.90
2022-11-19T00:35:26.084Z,67.55
2022-11-19T00:38:32.055Z,67.49
2022-11-19T00:41:35.764Z,67.62
2022-11-19T00:44:39.198Z,67.65
2022-11-19T00:47:42.862Z,67.88
2022-11-19T00:50:46.362Z,67.56
2022-11-19T00:53:51.692Z,67.67
2022-11-19T00:56:55.086Z,67.57
2022-11-19T00:59:58.936Z,68.20
2022-11-19T01:03:02.418Z,67.65
2022-11-19T01:06:07.292Z,68.06
2022-11-19T01:09:12.261Z,67.89
2022-11-19T01:12:15.975Z,68.08
2022-11-19T01:15:19.438Z,67.90
2022-11-19T01:18:23.259Z,68.01
2022-11-19T01:21:29.038Z,67.71
2022-11-19T01:24:34.370Z,67.44
2022-11-19T01:27:37.750Z,67.51
2022-11-19T01:30:43.254Z,67.54
2022-11-19T01:33:46.975Z,67.01
2022-11-19T01:36:50.871Z,67.07
2022-11-19T01:39:55.610Z,67.02
2022-11-19T01:42:59.313Z,66.89
2022-11-19T01:46:02.814Z,66.75
2022-11-19T01:49:10.194Z,67.20
2022-11-19T01:52:13.696Z,67.42
2022-11-19T01:55:20.899Z,67.44
2022-11-19T01:58:26.459Z,67.44
2022-11-19T02:01:32.920Z,68.04
2022-11-19T02:04:37.518Z,67.84
2022-11-19T02:07:46.507Z,67.70
2022-11-19T02:11:00.196Z,68.28
2022-11-19T02:14:13.357Z,67.92
2022-11-19T02:17:28.422Z,68.00
2022-11-19T02:20:44.877Z,68.40
2022-11-19T02:24:24.804Z,68.35
2022-11-19T02:27:54.058Z,68.10
2022-11-19T02:31:07.850Z,68.13
2022-11-19T02:34:17.292Z,68.24
2022-11-19T02:37:27.349Z,67.80
2022-11-19T02:40:36.441Z,68.33
2022-11-19T02:43:43.107Z,67.99
2022-11-19T02:46:50.191Z,67.75
2022-11-19T02:49:58.831Z,68.22
2022-11-19T02:53:04.532Z,68.96
2022-11-19T02:56:17.636Z,68.36
2022-11-19T02:59:45.582Z,68.05
2022-11-19T03:03:12.971Z,68.31
2022-11-19T03:06:19.414Z,67.79
2022-11-19T03:09:23.895Z,67.47
2022-11-19T03:12:40.562Z,67.04
2022-11-19T03:16:05.631Z,68.58
2022-11-19T03:19:21.702Z,67.96
2022-11-19T03:22:31.810Z,67.04
2022-11-19T03:25:40.161Z,67.06
2022-11-19T03:28:44.723Z,66.76
2022-11-19T03:31:52.827Z,66.36
2022-11-19T03:35:05.589Z,66.18
2022-11-19T03:38:17.027Z,66.30
2022-11-19T03:41:22.029Z,67.29
2022-11-19T03:44:29.941Z,66.44
2022-11-19T03:47:37.891Z,65.53
2022-11-19T03:50:49.319Z,65.60
2022-11-19T03:53:52.780Z,65.32
2022-11-19T03:56:58.960Z,65.79
2022-11-19T04:00:02.440Z,66.21
2022-11-19T04:03:16.372Z,66.83
2022-11-19T04:06:21.223Z,66.84
2022-11-19T04:09:25.125Z,67.00
2022-11-19T04:12:28.616Z,67.35
2022-11-19T04:15:32.344Z,65.68
2022-11-19T04:18:35.783Z,66.70
2022-11-19T04:21:40.901Z,66.39
2022-11-19T04:24:44.314Z,67.10
2022-11-19T04:27:48.234Z,66.88
2022-11-19T04:30:51.766Z,68.42
2022-11-19T04:33:55.770Z,67.67
2022-11-19T04:37:00.650Z,66.96
2022-11-19T04:40:04.892Z,66.25
2022-11-19T04:43:08.262Z,65.52
2022-11-19T04:46:12.337Z,65.48
2022-11-19T04:49:15.932Z,65.71
2022-11-19T04:52:21.098Z,65.33
2022-11-19T04:55:24.492Z,65.31
2022-11-19T04:58:28.243Z,65.53
2022-11-19T05:01:32.483Z,65.71
2022-11-19T05:04:36.537Z,66.24
2022-11-19T05:07:41.663Z,65.83
2022-11-19T05:10:45.778Z,65.17
2022-11-19T05:13:49.250Z,65.55
2022-11-19T05:16:53.122Z,65.69
2022-11-19T05:19:56.593Z,65.50
2022-11-19T05:23:01.666Z,65.07
2022-11-19T05:26:05.327Z,64.65
2022-11-19T05:29:09.084Z,65.33
2022-11-19T05:32:12.636Z,66.08
2022-11-19T05:35:16.394Z,66.36
2022-11-19T05:38:21.403Z,65.88
2022-11-19T05:41:25.097Z,65.69
2022-11-19T05:44:28.509Z,65.19
2022-11-19T05:47:32.251Z,65.24
2022-11-19T05:50:35.810Z,65.29
2022-11-19T05:53:40.931Z,64.87
2022-11-19T05:56:44.714Z,66.16
2022-11-19T05:59:48.426Z,67.09
2022-11-19T06:02:51.957Z,65.58
2022-11-19T06:05:55.992Z,65.27
2022-11-19T06:09:00.751Z,65.22
2022-11-19T06:12:04.722Z,64.94
2022-11-19T06:15:09.483Z,65.35
2022-11-19T06:18:13.275Z,65.33
2022-11-19T06:21:16.759Z,65.11
2022-11-19T06:24:22.331Z,65.05
2022-11-19T06:27:25.970Z,65.58
2022-11-19T06:30:29.662Z,65.05
2022-11-19T06:33:33.124Z,65.29
2022-11-19T06:36:41.149Z,65.42
2022-11-19T06:39:48.570Z,65.09
2022-11-19T06:42:52.236Z,65.31
2022-11-19T06:45:55.910Z,65.42
2022-11-19T06:49:20.395Z,65.91
2022-11-19T06:52:24.245Z,65.36
2022-11-19T06:55:29.405Z,65.23
2022-11-19T06:58:33.057Z,65.77
2022-11-19T07:01:36.852Z,66.23
2022-11-19T07:04:40.481Z,66.88
2022-11-19T07:07:44.420Z,66.52
2022-11-19T07:10:49.185Z,66.66
2022-11-19T07:14:00.325Z,66.49
2022-11-19T07:17:04.995Z,66.48
2022-11-19T07:20:10.035Z,66.72
2022-11-19T07:23:13.606Z,66.91
2022-11-19T07:26:18.693Z,66.56
2022-11-19T07:29:22.614Z,66.92
2022-11-19T07:32:27.174Z,66.81
2022-11-19T07:35:30.646Z,67.02
2022-11-19T07:38:37.172Z,66.60
2022-11-19T07:41:59.390Z,66.21
2022-11-19T07:45:03.224Z,66.57
2022-11-19T07:48:07.236Z,66.46
2022-11-19T07:51:29.780Z,67.13
2022-11-19T07:54:33.659Z,67.58
2022-11-19T07:57:38.940Z,67.65
2022-11-19T08:00:43.122Z,68.38
2022-11-19T08:03:51.829Z,67.61
2022-11-19T08:06:57.150Z,67.30
2022-11-19T08:10:00.906Z,67.02
2022-11-19T08:13:05.746Z,67.03
2022-11-19T08:16:11.370Z,66.71
2022-11-19T08:19:15.819Z,66.82
2022-11-19T08:22:19.758Z,67.02
2022-11-19T08:25:23.317Z,66.39
2022-11-19T08:28:29.307Z,66.08
2022-11-19T08:31:33.050Z,66.06
2022-11-19T08:34:36.801Z,65.93
2022-11-19T08:37:40.211Z,65.69
2022-11-19T08:40:44.198Z,66.60
2022-11-19T08:43:47.996Z,66.57
2022-11-19T08:46:52.136Z,66.52
2022-11-19T08:49:55.491Z,66.74
2022-11-19T08:53:01.284Z,66.92
2022-11-19T08:56:05.368Z,66.87
2022-11-19T08:59:10.912Z,66.32
2022-11-19T09:02:14.376Z,66.32
2022-11-19T09:05:18.557Z,66.79
2022-11-19T09:08:21.970Z,66.94
2022-11-19T09:11:25.723Z,66.85
2022-11-19T09:14:30.483Z,66.70
2022-11-19T09:17:34.205Z,67.44
2022-11-19T09:20:37.696Z,67.14
2022-11-19T09:23:42.676Z,67.69
2022-11-19T09:26:51.736Z,67.01
2022-11-19T09:29:57.982Z,66.34
2022-11-19T09:33:01.470Z,66.03
2022-11-19T09:36:06.318Z,65.12
2022-11-19T09:39:09.695Z,65.47
2022-11-19T09:42:17.304Z,67.02
2022-11-19T09:45:34.741Z,67.90
2022-11-19T09:48:39.952Z,68.40
2022-11-19T09:51:53.013Z,68.58
2022-11-19T09:54:58.950Z,68.76
2022-11-19T09:58:07.380Z,69.84
2022-11-19T10:01:14.824Z,68.28
2022-11-19T10:04:22.526Z,67.63
2022-11-19T10:07:41.443Z,67.71
2022-11-19T10:10:53.787Z,67.61
2022-11-19T10:14:08.582Z,67.32
2022-11-19T10:17:23.478Z,67.36
2022-11-19T10:20:53.891Z,66.82
2022-11-19T10:24:09.547Z,66.44
2022-11-19T10:27:21.036Z,66.00
2022-11-19T10:30:26.291Z,66.56
2022-11-19T10:33:36.238Z,66.98
2022-11-19T10:36:44.237Z,65.84
2022-11-19T10:39:54.562Z,66.73
2022-11-19T10:43:04.693Z,65.87
2022-11-19T10:46:13.538Z,65.63
2022-11-19T10:49:18.768Z,65.88
2022-11-19T10:52:31.233Z,65.82
2022-11-19T10:55:39.464Z,65.82
2022-11-19T10:58:48.385Z,66.02
2022-11-19T11:01:55.637Z,66.04
2022-11-19T11:05:10.943Z,65.93
2022-11-19T11:08:14.339Z,67.10
2022-11-19T11:11:26.190Z,68.55
2022-11-19T11:14:47.259Z,67.60
2022-11-19T11:18:03.337Z,68.69
2022-11-19T11:21:12.076Z,67.84
2022-11-19T11:24:16.278Z,68.30
2022-11-19T11:27:21.058Z,68.70
2022-11-19T11:30:24.930Z,67.36
2022-11-19T11:33:32.510Z,69.10
2022-11-19T11:36:38.631Z,69.29
2022-11-19T11:39:44.247Z,69.36
2022-11-19T11:42:48.148Z,69.81
2022-11-19T11:45:58.103Z,69.59
2022-11-19T11:49:08.289Z,68.98
2022-11-19T11:52:19.774Z,70.42
2022-11-19T11:55:32.611Z,71.21
2022-11-19T11:58:36.082Z,71.85
2022-11-19T12:01:42.553Z,71.01
2022-11-19T12:04:46.135Z,71.17
2022-11-19T12:08:04.564Z,71.60
2022-11-19T12:11:15.290Z,71.48
2022-11-19T12:14:25.241Z,71.29
2022-11-19T12:17:44.266Z,70.70
2022-11-19T12:20:56.574Z,69.45
2022-11-19T12:24:41.857Z,69.30
2022-11-19T12:28:04.384Z,70.06
2022-11-19T12:31:20.619Z,69.37
2022-11-19T12:34:49.559Z,70.23
2022-11-19T12:38:11.345Z,69.69
2022-11-19T12:41:48.591Z,68.44
2022-11-19T12:45:01.800Z,69.56
2022-11-19T12:48:26.677Z,68.49
2022-11-19T12:51:43.363Z,69.28
2022-11-19T12:54:57.186Z,69.06
2022-11-19T12:58:14.018Z,69.44
2022-11-19T13:01:22.817Z,68.90
2022-11-19T13:04:36.613Z,69.03
2022-11-19T13:07:47.628Z,69.30
2022-11-19T13:11:01.347Z,68.96
2022-11-19T13:14:13.606Z,68.48
2022-11-19T13:17:23.044Z,70.37
2022-11-19T13:20:29.858Z,70.34
2022-11-19T13:23:39.305Z,71.13
2022-11-19T13:26:43.318Z,71.18
2022-11-19T13:29:53.797Z,71.32
2022-11-19T13:33:06.493Z,70.93
2022-11-19T13:36:19.821Z,71.93
2022-11-19T13:39:30.123Z,70.83
2022-11-19T13:43:31.004Z,69.79
2022-11-19T13:46:38.421Z,69.94
2022-11-19T13:49:46.039Z,71.18
2022-11-19T13:52:58.748Z,70.73
2022-11-19T13:56:02.470Z,70.83
2022-11-19T13:59:08.141Z,71.99
2022-11-19T14:02:42.046Z,73.96
2022-11-19T14:06:07.004Z,75.28
2022-11-19T14:09:29.388Z,74.32
2022-11-19T14:12:52.912Z,73.00
2022-11-19T14:16:35.707Z,72.39
2022-11-19T14:20:08.626Z,72.42
2022-11-19T14:23:49.179Z,71.76
2022-11-19T14:27:18.554Z,71.41
2022-11-19T14:30:42.589Z,70.89
2022-11-19T14:34:01.366Z,70.53
2022-11-19T14:37:18.101Z,71.52
2022-11-19T14:40:26.291Z,71.46
2022-11-19T14:43:47.067Z,71.50
2022-11-19T14:46:51.072Z,72.42
2022-11-19T14:49:55.989Z,73.15
2022-11-19T14:53:02.581Z,72.95
2022-11-19T14:56:12.049Z,73.31
2022-11-19T14:59:22.858Z,72.88
2022-11-19T15:02:31.458Z,72.09
2022-11-19T15:05:40.681Z,71.98
2022-11-19T15:08:53.760Z,70.96
2022-11-19T15:12:02.366Z,71.15
2022-11-19T15:15:34.109Z,70.58
2022-11-19T15:19:17.198Z,70.35
2022-11-19T15:22:38.757Z,70.64
2022-11-19T15:25:58.371Z,70.80
2022-11-19T15:29:14.070Z,71.79
2022-11-19T15:32:32.205Z,71.86
2022-11-19T15:36:19.077Z,71.21
2022-11-19T15:39:27.770Z,71.17
2022-11-19T15:42:44.145Z,70.80
2022-11-19T15:45:54.313Z,71.98
2022-11-19T15:49:04.660Z,72.84
2022-11-19T15:52:21.139Z,73.50
2022-11-19T15:55:26.955Z,72.43
2022-11-19T15:58:37.809Z,72.89
2022-11-19T16:01:43.181Z,72.59
2022-11-19T16:04:49.864Z,73.19
2022-11-19T16:07:54.783Z,74.10
2022-11-19T16:11:17.280Z,74.37
2022-11-19T16:14:43.960Z,75.50
2022-11-19T16:17:48.975Z,76.68
2022-11-19T16:20:53.823Z,77.01
2022-11-19T16:24:15.356Z,75.62
2022-11-19T16:27:22.759Z,75.03
2022-11-19T16:30:30.719Z,74.78
2022-11-19T16:33:35.870Z,73.81
2022-11-19T16:36:39.701Z,73.39
2022-11-19T16:39:45.502Z,74.03
2022-11-19T16:42:54.154Z,73.74
2022-11-19T16:46:00.454Z,74.49
2022-11-19T16:49:05.226Z,74.41
2022-11-19T16:52:08.860Z,75.06
2022-11-19T16:55:50.915Z,75.60
2022-11-19T16:58:57.264Z,74.83
2022-11-19T17:02:03.616Z,74.52
2022-11-19T17:05:10.060Z,74.89
2022-11-19T17:08:22.916Z,74.98
2022-11-19T17:11:58.865Z,74.68
2022-11-19T17:15:03.869Z,74.79
2022-11-19T17:18:20.672Z,75.13
2022-11-19T17:21:28.295Z,74.79
2022-11-19T17:24:35.402Z,75.14
2022-11-19T17:27:39.564Z,74.36
2022-11-19T17:30:46.015Z,74.74
2022-11-19T17:33:53.916Z,74.69
2022-11-19T17:36:57.279Z,75.47
2022-11-19T17:40:00.904Z,75.39
2022-11-19T17:43:27.162Z,75.03
2022-11-19T17:46:30.943Z,75.97
2022-11-19T17:49:35.676Z,75.31
2022-11-19T17:52:39.447Z,75.32
2022-11-19T17:55:45.198Z,75.56
2022-11-19T17:58:49.277Z,75.07
2022-11-19T18:02:15.953Z,75.60
2022-11-19T18:05:24.232Z,75.56
2022-11-19T18:08:27.631Z,75.39
2022-11-19T18:11:31.428Z,74.71
2022-11-19T18:14:35.031Z,74.17
2022-11-19T18:17:38.752Z,73.81
2022-11-19T18:20:43.433Z,73.25
2022-11-19T18:23:48.446Z,72.94
2022-11-19T18:26:51.872Z,72.61
2022-11-19T18:29:55.683Z,73.56
2022-11-19T18:32:59.122Z,73.12
2022-11-19T18:36:05.716Z,73.15
2022-11-19T18:39:09.164Z,72.13
2022-11-19T18:42:13.248Z,72.70
2022-11-19T18:45:15.621Z,72.57
2022-11-19T18:48:19.427Z,72.58
2022-11-19T18:51:27.286Z,73.39
2022-11-19T18:54:31.155Z,72.99
2022-11-19T18:57:34.603Z,73.10
2022-11-19T19:00:38.348Z,73.64
2022-11-19T19:03:41.721Z,72.93
2022-11-19T19:06:46.846Z,73.90
2022-11-19T19:09:50.273Z,74.30
2022-11-19T19:12:54.035Z,74.63
2022-11-19T19:16:01.599Z,76.18
2022-11-19T19:19:05.403Z,76.30
2022-11-19T19:22:10.210Z,76.81
2022-11-19T19:25:13.962Z,76.04
2022-11-19T19:28:17.317Z,77.01
2022-11-19T19:31:21.225Z,77.15
2022-11-19T19:34:24.928Z,77.22
2022-11-19T19:37:30.106Z,77.00
2022-11-19T19:40:33.573Z,77.09
2022-11-19T19:43:37.303Z,77.77
2022-11-19T19:46:40.657Z,76.88
2022-11-19T19:49:44.470Z,76.86
2022-11-19T19:52:51.649Z,77.40
2022-11-19T19:56:02.449Z,76.97
2022-11-19T19:59:05.861Z,77.75
2022-11-19T20:02:10.606Z,76.48
2022-11-19T20:05:14.033Z,75.59
2022-11-19T20:08:19.116Z,76.40
2022-11-19T20:11:25.181Z,76.36
2022-11-19T20:14:28.902Z,75.39
2022-11-19T20:17:32.355Z,75.49
2022-11-19T20:20:36.133Z,75.55
2022-11-19T20:23:41.755Z,75.56
2022-11-19T20:26:45.515Z,75.46
2022-11-19T20:29:48.998Z,75.49
2022-11-19T20:32:52.711Z,75.36
2022-11-19T20:35:56.211Z,75.56
2022-11-19T20:39:02.234Z,75.35
2022-11-19T20:42:23.407Z,74.90
2022-11-19T20:45:27.320Z,74.58
2022-11-19T20:48:30.772Z,74.26
2022-11-19T20:51:35.756Z,74.25
2022-11-19T20:54:41.954Z,73.47
2022-11-19T20:57:45.716Z,72.93
2022-11-19T21:00:49.280Z,72.77
2022-11-19T21:03:53.073Z,73.03
2022-11-19T21:06:56.856Z,73.09
2022-11-19T21:10:07.617Z,72.53
2022-11-19T21:13:11.461Z,72.33
2022-11-19T21:16:17.236Z,72.58
2022-11-19T21:19:20.965Z,72.17
2022-11-19T21:22:25.118Z,71.61
2022-11-19T21:25:30.368Z,71.71
2022-11-19T21:28:35.510Z,72.08
2022-11-19T21:31:39.838Z,71.98
2022-11-19T21:34:43.696Z,72.38
2022-11-19T21:37:47.147Z,72.70
2022-11-19T21:40:54.068Z,73.69
2022-11-19T21:43:57.430Z,73.45
2022-11-19T21:47:01.141Z,74.49
2022-11-19T21:50:04.834Z,74.78
2022-11-19T21:53:08.944Z,74.82
2022-11-19T21:56:13.659Z,75.81
2022-11-19T21:59:17.603Z,75.42
2022-11-19T22:02:21.062Z,76.23
2022-11-19T22:05:25.226Z,76.26
2022-11-19T22:08:30.927Z,77.63
2022-11-19T22:11:36.487Z,76.78
2022-11-19T22:14:40.047Z,76.11
2022-11-19T22:17:46.391Z,76.24
2022-11-19T22:20:50.560Z,76.14
2022-11-19T22:23:54.342Z,76.92
2022-11-19T22:26:59.194Z,78.41
2022-11-19T22:30:05.835Z,78.15
2022-11-19T22:33:09.727Z,77.73
2022-11-19T22:36:13.370Z,77.53
2022-11-19T22:39:18.565Z,77.61
2022-11-19T22:42:23.843Z,76.21
2022-11-19T22:45:27.283Z,77.18
2022-11-19T22:48:31.648Z,76.39
2022-11-19T22:51:35.218Z,76.08
2022-11-19T22:54:41.827Z,74.97
2022-11-19T22:57:46.830Z,74.95
2022-11-19T23:00:51.030Z,76.02
2022-11-19T23:03:55.335Z,74.89
2022-11-19T23:06:59.223Z,75.00
2022-11-19T23:10:02.589Z,75.15
2022-11-19T23:13:25.172Z,75.04
2022-11-19T23:16:28.533Z,73.89
2022-11-19T23:19:32.316Z,74.60
2022-11-19T23:22:35.647Z,74.49
2022-11-19T23:25:39.369Z,74.28
2022-11-19T23:28:45.641Z,75.34
2022-11-19T23:31:50.122Z,74.64
2022-11-19T23:34:53.443Z,74.53
2022-11-19T23:38:15.497Z,76.48
2022-11-19T23:41:20.331Z,75.24
2022-11-19T23:44:25.442Z,75.36
2022-11-19T23:47:28.775Z,74.83
2022-11-19T23:50:33.266Z,75.25
2022-11-19T23:53:36.976Z,75.00
2022-11-19T23:56:40.761Z,74.76
2022-11-19T23:59:45.593Z,75.86
